createdAt,value
2023-04-09T00:01:39.784Z,11.98
2023-04-09T00:04:06.330Z,10.38
2023-04-09T00:06:32.802Z,10.07
2023-04-09T00:08:59.174Z,9.63
2023-04-09T00:11:25.703Z,10.05
2023-04-09T00:13:52.040Z,9.73
2023-04-09T00:16:18.481Z,9.50
2023-04-09T00:18:44.891Z,9.90
2023-04-09T00:21:11.353Z,9.27
2023-04-09T00:23:37.724Z,8.88
2023-04-09T00:26:04.179Z,9.98
2023-04-09T00:28:30.572Z,9.18
2023-04-09T00:30:57.169Z,10.40
2023-04-09T00:33:23.593Z,10.50
2023-04-09T00:35:50.013Z,12.85
2023-04-09T00:38:16.410Z,9.50
2023-04-09T00:40:42.816Z,10.30
2023-04-09T00:43:09.297Z,10.68
2023-04-09T00:45:36.295Z,9.52
2023-04-09T00:48:02.857Z,10.70
2023-04-09T00:50:29.212Z,8.13
2023-04-09T00:52:55.725Z,9.65
2023-04-09T00:55:22.454Z,11.52
2023-04-09T00:57:48.855Z,10.60
2023-04-09T01:00:15.662Z,10.57
2023-04-09T01:02:42.615Z,10.07
2023-04-09T01:05:09.713Z,11.57
2023-04-09T01:08:05.225Z,8.77
2023-04-09T01:10:38.572Z,8.75
2023-04-09T01:13:21.442Z,9.93
2023-04-09T01:16:00.595Z,8.23
2023-04-09T01:18:37.805Z,10.75
2023-04-09T01:21:13.681Z,9.48
2023-04-09T01:24:06.961Z,9.07
2023-04-09T01:26:51.784Z,8.52
2023-04-09T01:29:20.294Z,8.35
2023-04-09T01:31:47.785Z,7.35
2023-04-09T01:34:14.903Z,7.00
2023-04-09T01:36:42.137Z,8.02
2023-04-09T01:39:08.783Z,9.32
2023-04-09T01:41:35.547Z,8.75
2023-04-09T01:44:03.484Z,10.15
2023-04-09T01:46:30.078Z,7.68
2023-04-09T01:48:57.087Z,8.52
2023-04-09T01:51:23.495Z,8.30
2023-04-09T01:53:49.826Z,7.93
2023-04-09T01:56:16.191Z,8.35
2023-04-09T01:58:42.612Z,8.05
2023-04-09T02:01:21.468Z,7.93
2023-04-09T02:04:10.957Z,8.20
2023-04-09T02:06:44.617Z,7.68
2023-04-09T02:09:12.412Z,8.13
2023-04-09T02:11:40.949Z,7.53
2023-04-09T02:14:11.148Z,8.43
2023-04-09T02:16:38.541Z,10.15
2023-04-09T02:19:04.959Z,8.13
2023-04-09T02:21:32.169Z,7.30
2023-04-09T02:23:58.569Z,7.95
2023-04-09T02:26:25.100Z,7.50
2023-04-09T02:28:51.770Z,6.22
2023-04-09T02:31:18.404Z,7.95
2023-04-09T02:33:44.841Z,7.00
2023-04-09T02:36:15.242Z,7.65
2023-04-09T02:38:42.470Z,7.32
2023-04-09T02:41:09.304Z,11.43
2023-04-09T02:43:35.744Z,9.90
2023-04-09T02:46:02.193Z,7.72
2023-04-09T02:48:28.669Z,9.23
2023-04-09T02:50:55.051Z,8.73
2023-04-09T02:53:21.563Z,11.30
2023-04-09T02:55:48.018Z,9.82
2023-04-09T02:58:14.456Z,7.97
2023-04-09T03:00:40.912Z,11.38
2023-04-09T03:03:07.590Z,12.60
2023-04-09T03:05:34.149Z,11.02
2023-04-09T03:08:01.509Z,11.68
2023-04-09T03:10:27.881Z,8.90
2023-04-09T03:12:54.303Z,10.45
2023-04-09T03:15:20.706Z,9.38
2023-04-09T03:17:47.217Z,9.90
2023-04-09T03:20:13.615Z,11.80
2023-04-09T03:22:39.952Z,8.45
2023-04-09T03:25:06.946Z,9.20
2023-04-09T03:27:33.286Z,11.23
2023-04-09T03:29:59.842Z,10.57
2023-04-09T03:32:26.301Z,10.05
2023-04-09T03:34:52.716Z,9.18
2023-04-09T03:37:19.103Z,10.30
2023-04-09T03:39:45.421Z,8.93
2023-04-09T03:42:11.765Z,8.95
2023-04-09T03:44:38.146Z,11.32
2023-04-09T03:47:04.525Z,8.68
2023-04-09T03:49:30.883Z,10.73
2023-04-09T03:51:57.280Z,8.52
2023-04-09T03:54:23.803Z,11.30
2023-04-09T03:56:50.177Z,11.07
2023-04-09T03:59:16.647Z,10.70
2023-04-09T04:01:43.116Z,11.38
2023-04-09T04:04:09.576Z,10.20
2023-04-09T04:06:36.023Z,11.48
2023-04-09T04:09:02.381Z,11.73
2023-04-09T04:11:28.825Z,12.90
2023-04-09T04:13:55.960Z,10.77
2023-04-09T04:16:22.506Z,12.45
2023-04-09T04:18:48.892Z,12.18
2023-04-09T04:21:16.354Z,9.88
2023-04-09T04:23:42.856Z,12.55
2023-04-09T04:26:10.793Z,14.07
2023-04-09T04:28:37.950Z,13.82
2023-04-09T04:31:11.818Z,12.48
2023-04-09T04:33:39.538Z,11.43
2023-04-09T04:36:11.607Z,13.25
2023-04-09T04:38:38.687Z,14.18
2023-04-09T04:41:05.400Z,14.80
2023-04-09T04:43:32.385Z,14.43
2023-04-09T04:45:58.831Z,16.10
2023-04-09T04:48:25.250Z,14.15
2023-04-09T04:50:58.281Z,13.60
2023-04-09T04:53:24.828Z,13.90
2023-04-09T04:55:51.286Z,14.23
2023-04-09T04:58:17.974Z,12.57
2023-04-09T05:00:45.020Z,16.55
2023-04-09T05:03:12.093Z,14.15
2023-04-09T05:05:38.484Z,17.30
2023-04-09T05:08:04.992Z,15.38
2023-04-09T05:10:31.502Z,15.55
2023-04-09T05:12:57.870Z,15.77
2023-04-09T05:15:24.297Z,17.73
2023-04-09T05:17:51.790Z,17.05
2023-04-09T05:20:18.188Z,18.50
2023-04-09T05:22:44.558Z,17.35
2023-04-09T05:25:11.008Z,21.38
2023-04-09T05:27:37.426Z,19.73
2023-04-09T05:30:04.215Z,19.55
2023-04-09T05:32:30.847Z,17.95
2023-04-09T05:34:57.224Z,21.67
2023-04-09T05:37:23.599Z,18.45
2023-04-09T05:39:50.273Z,16.10
2023-04-09T05:42:17.325Z,19.02
2023-04-09T05:44:43.735Z,19.85
2023-04-09T05:47:10.067Z,21.55
2023-04-09T05:49:36.445Z,19.42
2023-04-09T05:52:02.912Z,19.58
2023-04-09T05:54:29.241Z,21.27
2023-04-09T05:56:55.674Z,17.50
2023-04-09T05:59:24.660Z,17.85
2023-04-09T06:01:51.250Z,20.70
2023-04-09T06:04:17.737Z,20.88
2023-04-09T06:06:44.147Z,18.35
2023-04-09T06:09:10.638Z,18.92
2023-04-09T06:11:37.030Z,18.95
2023-04-09T06:14:03.461Z,19.50
2023-04-09T06:16:29.823Z,22.25
2023-04-09T06:18:56.887Z,23.27
2023-04-09T06:21:23.228Z,22.27
2023-04-09T06:23:50.513Z,21.33
2023-04-09T06:26:17.536Z,20.17
2023-04-09T06:28:44.020Z,20.02
2023-04-09T06:31:10.569Z,21.75
2023-04-09T06:33:37.040Z,23.13
2023-04-09T06:36:03.568Z,23.42
2023-04-09T06:38:29.968Z,20.88
2023-04-09T06:40:57.133Z,21.38
2023-04-09T06:43:23.531Z,23.33
2023-04-09T06:45:49.987Z,23.20
2023-04-09T06:48:16.573Z,20.77
2023-04-09T06:50:44.329Z,21.63
2023-04-09T06:53:10.842Z,23.15
2023-04-09T06:55:37.307Z,19.63
2023-04-09T06:58:03.706Z,21.55
2023-04-09T07:00:30.974Z,20.77
2023-04-09T07:02:57.482Z,34.70
2023-04-09T07:05:24.496Z,32.78
2023-04-09T07:07:51.075Z,26.63
2023-04-09T07:10:17.526Z,22.55
2023-04-09T07:12:43.990Z,19.60
2023-04-09T07:15:10.550Z,21.08
2023-04-09T07:17:37.040Z,19.63
2023-04-09T07:20:04.098Z,20.85
2023-04-09T07:22:33.103Z,22.80
2023-04-09T07:24:59.510Z,19.92
2023-04-09T07:27:30.277Z,20.77
2023-04-09T07:29:58.390Z,20.70
2023-04-09T07:32:26.217Z,23.05
2023-04-09T07:34:53.001Z,20.08
2023-04-09T07:37:19.737Z,19.20
2023-04-09T07:39:46.681Z,19.08
2023-04-09T07:42:13.506Z,20.63
2023-04-09T07:44:39.944Z,21.48
2023-04-09T07:47:07.466Z,20.05
2023-04-09T07:49:36.434Z,20.77
2023-04-09T07:52:03.363Z,21.33
2023-04-09T07:54:31.449Z,21.27
2023-04-09T07:56:58.290Z,21.02
2023-04-09T07:59:25.227Z,21.60
2023-04-09T08:01:51.697Z,21.38
2023-04-09T08:04:18.425Z,20.50
2023-04-09T08:06:49.840Z,20.75
2023-04-09T08:09:17.358Z,19.95
2023-04-09T08:11:45.594Z,18.55
2023-04-09T08:14:12.983Z,19.23
2023-04-09T08:16:40.996Z,20.38
2023-04-09T08:19:08.546Z,20.70
2023-04-09T08:21:40.659Z,18.35
2023-04-09T08:24:07.476Z,20.17
2023-04-09T08:26:33.862Z,21.20
2023-04-09T08:29:00.921Z,20.92
2023-04-09T08:31:27.358Z,19.27
2023-04-09T08:33:53.797Z,19.73
2023-04-09T08:36:21.003Z,19.20
2023-04-09T08:38:47.581Z,20.38
2023-04-09T08:41:21.571Z,20.95
2023-04-09T08:43:57.649Z,20.75
2023-04-09T08:46:26.004Z,20.83
2023-04-09T08:48:52.802Z,17.60
2023-04-09T08:51:21.688Z,19.65
2023-04-09T08:53:59.651Z,21.30
2023-04-09T08:56:28.361Z,21.25
2023-04-09T08:58:56.104Z,19.35
2023-04-09T09:01:25.282Z,18.40
2023-04-09T09:04:09.008Z,21.40
2023-04-09T09:06:40.736Z,17.77
2023-04-09T09:09:09.010Z,20.35
2023-04-09T09:11:42.985Z,20.50
2023-04-09T09:14:11.204Z,18.42
2023-04-09T09:16:40.163Z,18.88
2023-04-09T09:19:07.081Z,19.38
2023-04-09T09:21:34.216Z,17.08
2023-04-09T09:24:00.633Z,18.33
2023-04-09T09:26:29.107Z,16.90
2023-04-09T09:28:58.656Z,20.13
2023-04-09T09:31:26.120Z,18.25
2023-04-09T09:33:52.969Z,17.83
2023-04-09T09:36:33.351Z,16.35
2023-04-09T09:39:04.884Z,16.88
2023-04-09T09:41:31.512Z,15.77
2023-04-09T09:43:58.005Z,16.17
2023-04-09T09:46:26.248Z,17.42
2023-04-09T09:48:53.218Z,15.80
2023-04-09T09:51:22.608Z,19.02
2023-04-09T09:53:51.258Z,15.98
2023-04-09T09:56:24.576Z,17.08
2023-04-09T09:59:04.851Z,12.73
2023-04-09T10:01:31.327Z,11.57
2023-04-09T10:04:00.224Z,13.15
2023-04-09T10:06:27.542Z,12.48
2023-04-09T10:08:58.275Z,11.45
2023-04-09T10:11:25.068Z,12.00
2023-04-09T10:13:55.930Z,12.45
2023-04-09T10:16:23.390Z,11.77
2023-04-09T10:18:50.223Z,12.00
2023-04-09T10:21:32.124Z,11.20
2023-04-09T10:23:58.708Z,10.98
2023-04-09T10:26:27.668Z,9.65
2023-04-09T10:29:08.273Z,8.65
2023-04-09T10:32:06.430Z,9.82
2023-04-09T10:34:39.338Z,11.07
2023-04-09T10:37:13.597Z,10.63
2023-04-09T10:42:13.857Z,10.23
2023-04-09T10:44:43.570Z,11.77
2023-04-09T10:47:11.607Z,10.38
2023-04-09T10:49:39.491Z,10.13
2023-04-09T10:52:11.567Z,10.35
2023-04-09T10:54:46.869Z,10.73
2023-04-09T10:57:14.825Z,10.82
2023-04-09T10:59:43.022Z,10.77
2023-04-09T11:02:21.166Z,11.23
2023-04-09T11:05:00.949Z,11.30
2023-04-09T11:07:27.698Z,11.27
2023-04-09T11:09:54.082Z,10.90
2023-04-09T11:12:20.475Z,11.15
2023-04-09T11:14:46.796Z,10.27
2023-04-09T11:17:13.433Z,11.82
2023-04-09T11:19:39.851Z,11.35
2023-04-09T11:22:08.968Z,11.43
2023-04-09T11:24:46.520Z,12.18
2023-04-09T11:27:13.721Z,10.50
2023-04-09T11:29:40.702Z,10.98
2023-04-09T11:32:07.118Z,10.77
2023-04-09T11:34:33.479Z,11.27
2023-04-09T11:37:02.119Z,11.02
2023-04-09T11:39:28.799Z,10.35
2023-04-09T11:41:55.197Z,10.75
2023-04-09T11:44:22.419Z,11.40
2023-04-09T11:46:49.146Z,10.68
2023-04-09T11:49:16.300Z,11.48
2023-04-09T11:51:42.756Z,11.18
2023-04-09T11:54:09.092Z,11.80
2023-04-09T11:56:36.259Z,13.55
2023-04-09T11:59:12.263Z,12.50
2023-04-09T12:01:38.974Z,14.95
2023-04-09T12:04:06.888Z,11.57
2023-04-09T12:06:33.516Z,12.60
2023-04-09T12:08:59.926Z,10.27
2023-04-09T12:11:30.119Z,10.25
2023-04-09T12:14:03.003Z,9.57
2023-04-09T12:16:33.780Z,9.75
2023-04-09T12:19:06.684Z,11.52
2023-04-09T12:21:49.654Z,10.23
2023-04-09T12:24:17.402Z,10.45
2023-04-09T12:26:47.978Z,9.77
2023-04-09T12:29:15.803Z,6.50
2023-04-09T12:31:42.740Z,6.85
2023-04-09T12:34:09.300Z,6.85
2023-04-09T12:36:35.920Z,6.53
2023-04-09T12:39:02.274Z,6.47
2023-04-09T12:41:28.639Z,6.53
2023-04-09T12:43:55.009Z,6.72
2023-04-09T12:46:21.546Z,6.95
2023-04-09T12:48:47.932Z,7.40
2023-04-09T12:51:14.394Z,7.55
2023-04-09T12:53:40.928Z,8.50
2023-04-09T12:56:07.601Z,8.95
2023-04-09T12:58:33.999Z,8.52
2023-04-09T13:01:00.741Z,7.90
2023-04-09T13:03:27.422Z,7.82
2023-04-09T13:05:54.169Z,8.25
2023-04-09T13:08:20.598Z,7.88
2023-04-09T13:10:47.021Z,7.82
2023-04-09T13:13:13.424Z,8.77
2023-04-09T13:15:43.101Z,7.43
2023-04-09T13:18:09.859Z,7.38
2023-04-09T13:20:36.356Z,6.80
2023-04-09T13:23:02.737Z,7.82
2023-04-09T13:25:29.291Z,8.52
2023-04-09T13:27:55.705Z,8.35
2023-04-09T13:30:22.861Z,7.40
2023-04-09T13:32:49.385Z,8.23
2023-04-09T13:35:15.824Z,7.28
2023-04-09T13:37:42.219Z,7.60
2023-04-09T13:40:09.165Z,6.85
2023-04-09T13:42:37.445Z,7.78
2023-04-09T13:45:04.689Z,7.82
2023-04-09T13:47:31.072Z,7.82
2023-04-09T13:49:57.569Z,6.80
2023-04-09T13:52:26.717Z,6.70
2023-04-09T13:54:54.657Z,7.43
2023-04-09T13:57:21.236Z,7.70
2023-04-09T13:59:47.689Z,6.82
2023-04-09T14:02:14.457Z,7.35
2023-04-09T14:04:40.993Z,6.90
2023-04-09T14:07:07.381Z,7.03
2023-04-09T14:09:33.785Z,5.88
2023-04-09T14:12:01.465Z,6.72
2023-04-09T14:14:27.849Z,6.40
2023-04-09T14:16:55.348Z,5.75
2023-04-09T14:19:22.800Z,5.40
2023-04-09T14:21:49.345Z,5.55
2023-04-09T14:24:15.959Z,5.05
2023-04-09T14:26:42.443Z,5.45
2023-04-09T14:29:08.831Z,5.13
2023-04-09T14:31:35.315Z,5.32
2023-04-09T14:34:01.736Z,4.60
2023-04-09T14:36:28.133Z,5.22
2023-04-09T14:38:57.447Z,6.97
2023-04-09T14:41:24.320Z,4.95
2023-04-09T14:43:50.912Z,5.15
2023-04-09T14:46:17.292Z,4.72
2023-04-09T14:48:43.671Z,4.82
2023-04-09T14:51:10.822Z,5.57
2023-04-09T14:53:37.715Z,5.80
2023-04-09T14:56:04.404Z,5.13
2023-04-09T14:58:30.973Z,4.90
2023-04-09T15:00:57.561Z,4.93
2023-04-09T15:03:24.119Z,5.03
2023-04-09T15:05:50.741Z,4.93
2023-04-09T15:08:17.114Z,4.68
2023-04-09T15:10:43.721Z,4.93
2023-04-09T15:13:10.090Z,4.63
2023-04-09T15:15:36.662Z,4.70
2023-04-09T15:18:05.808Z,5.05
2023-04-09T15:20:36.735Z,4.60
2023-04-09T15:23:03.164Z,4.68
2023-04-09T15:25:29.473Z,4.78
2023-04-09T15:27:55.985Z,5.18
2023-04-09T15:30:22.373Z,4.93
2023-04-09T15:32:48.934Z,5.18
2023-04-09T15:35:19.016Z,5.60
2023-04-09T15:37:45.496Z,4.75
2023-04-09T15:40:12.359Z,5.03
2023-04-09T15:42:38.708Z,5.25
2023-04-09T15:45:05.635Z,4.75
2023-04-09T15:47:33.168Z,4.13
2023-04-09T15:50:00.128Z,4.93
2023-04-09T15:52:26.954Z,4.60
2023-04-09T15:54:53.307Z,4.10
2023-04-09T15:57:20.870Z,4.97
2023-04-09T15:59:48.250Z,5.28
2023-04-09T16:02:14.749Z,5.05
2023-04-09T16:04:41.335Z,4.43
2023-04-09T16:07:09.226Z,4.68
2023-04-09T16:09:35.779Z,5.00
2023-04-09T16:12:02.806Z,4.90
2023-04-09T16:14:30.063Z,4.68
2023-04-09T16:16:56.557Z,5.43
2023-04-09T16:19:24.990Z,4.63
2023-04-09T16:21:52.331Z,4.22
2023-04-09T16:24:18.857Z,4.40
2023-04-09T16:26:45.930Z,4.88
2023-04-09T16:29:12.644Z,4.50
2023-04-09T16:31:42.095Z,4.20
2023-04-09T16:34:08.583Z,6.13
2023-04-09T16:36:36.970Z,3.38
2023-04-09T16:39:04.461Z,4.30
2023-04-09T16:41:31.016Z,3.85
2023-04-09T16:43:57.400Z,3.72
2023-04-09T16:46:23.986Z,3.22
2023-04-09T16:48:50.533Z,3.70
2023-04-09T16:51:16.988Z,3.45
2023-04-09T16:53:43.391Z,4.03
2023-04-09T16:56:09.796Z,3.80
2023-04-09T16:58:36.218Z,4.22
2023-04-09T17:01:02.613Z,3.58
2023-04-09T17:03:29.104Z,3.42
2023-04-09T17:05:57.045Z,5.18
2023-04-09T17:08:24.406Z,5.10
2023-04-09T17:10:51.747Z,4.10
2023-04-09T17:13:18.162Z,4.00
2023-04-09T17:15:44.540Z,5.72
2023-04-09T17:18:10.926Z,5.05
2023-04-09T17:20:37.278Z,4.80
2023-04-09T17:23:03.680Z,7.25
2023-04-09T17:25:30.062Z,5.05
2023-04-09T17:27:56.488Z,3.90
2023-04-09T17:30:22.843Z,4.35
2023-04-09T17:32:49.972Z,3.85
2023-04-09T17:35:16.371Z,3.67
2023-04-09T17:37:43.695Z,3.25
2023-04-09T17:40:12.332Z,3.03
2023-04-09T17:42:38.759Z,4.00
2023-04-09T17:45:05.621Z,4.32
2023-04-09T17:47:31.987Z,3.20
2023-04-09T17:49:58.351Z,3.60
2023-04-09T17:52:24.814Z,3.30
2023-04-09T17:54:52.130Z,4.60
2023-04-09T17:57:18.569Z,3.50
2023-04-09T17:59:44.944Z,3.78
2023-04-09T18:02:11.443Z,3.33
2023-04-09T18:04:38.169Z,3.17
2023-04-09T18:07:05.065Z,2.90
2023-04-09T18:09:31.930Z,3.08
2023-04-09T18:11:59.997Z,3.50
2023-04-09T18:14:26.372Z,3.13
2023-04-09T18:16:52.730Z,4.15
2023-04-09T18:19:19.206Z,3.28
2023-04-09T18:21:45.596Z,3.15
2023-04-09T18:24:12.002Z,2.85
2023-04-09T18:26:38.338Z,3.13
2023-04-09T18:29:04.739Z,4.15
2023-04-09T18:31:31.233Z,3.25
2023-04-09T18:33:57.662Z,3.03
2023-04-09T18:36:24.276Z,3.78
2023-04-09T18:38:51.872Z,3.28
2023-04-09T18:41:25.358Z,5.82
2023-04-09T18:43:52.060Z,5.70
2023-04-09T18:46:18.920Z,3.60
2023-04-09T18:48:46.884Z,3.65
2023-04-09T18:51:14.186Z,3.50
2023-04-09T18:53:41.417Z,3.80
2023-04-09T18:56:07.797Z,6.43
2023-04-09T18:58:34.159Z,5.00
2023-04-09T19:01:01.272Z,4.30
2023-04-09T19:03:30.580Z,4.88
2023-04-09T19:05:58.529Z,5.35
2023-04-09T19:08:25.221Z,4.70
2023-04-09T19:10:53.522Z,5.13
2023-04-09T19:13:19.989Z,4.90
2023-04-09T19:15:46.388Z,5.03
2023-04-09T19:18:13.020Z,3.90
2023-04-09T19:20:39.368Z,4.50
2023-04-09T19:23:06.626Z,5.07
2023-04-09T19:25:34.058Z,3.78
2023-04-09T19:28:00.460Z,4.85
2023-04-09T19:30:26.822Z,3.83
2023-04-09T19:32:53.421Z,4.43
2023-04-09T19:35:19.834Z,5.68
2023-04-09T19:37:46.539Z,7.95
2023-04-09T19:40:15.312Z,5.22
2023-04-09T19:42:41.830Z,5.82
2023-04-09T19:45:08.861Z,5.95
2023-04-09T19:47:35.336Z,4.78
2023-04-09T19:50:01.914Z,4.70
2023-04-09T19:52:28.302Z,5.25
2023-04-09T19:54:56.115Z,4.38
2023-04-09T19:57:22.652Z,4.55
2023-04-09T19:59:49.935Z,4.82
2023-04-09T20:02:16.622Z,5.65
2023-04-09T20:04:43.042Z,6.00
2023-04-09T20:07:09.391Z,6.65
2023-04-09T20:09:41.099Z,8.38
2023-04-09T20:12:08.777Z,8.35
2023-04-09T20:14:35.438Z,5.05
2023-04-09T20:17:01.851Z,5.47
2023-04-09T20:19:28.241Z,6.22
2023-04-09T20:21:54.790Z,5.22
2023-04-09T20:24:22.251Z,5.15
2023-04-09T20:26:48.579Z,4.90
2023-04-09T20:29:14.931Z,5.85
2023-04-09T20:31:41.279Z,5.82
2023-04-09T20:34:07.781Z,8.25
2023-04-09T20:36:35.262Z,5.63
2023-04-09T20:39:03.817Z,5.55
2023-04-09T20:41:30.600Z,4.68
2023-04-09T20:43:57.091Z,5.07
2023-04-09T20:46:23.550Z,4.70
2023-04-09T20:48:49.960Z,4.88
2023-04-09T20:51:16.650Z,6.82
2023-04-09T20:53:43.009Z,5.25
2023-04-09T20:56:09.377Z,5.50
2023-04-09T20:58:35.739Z,7.45
2023-04-09T21:01:07.347Z,5.40
2023-04-09T21:03:34.909Z,7.22
2023-04-09T21:06:01.736Z,8.35
2023-04-09T21:08:28.996Z,6.07
2023-04-09T21:10:55.418Z,5.65
2023-04-09T21:13:22.748Z,5.43
2023-04-09T21:15:49.375Z,7.13
2023-04-09T21:18:16.504Z,6.38
2023-04-09T21:20:44.498Z,5.72
2023-04-09T21:23:11.011Z,5.90
2023-04-09T21:25:37.461Z,5.85
2023-04-09T21:28:03.937Z,6.38
2023-04-09T21:30:32.079Z,7.95
2023-04-09T21:33:01.223Z,9.70
2023-04-09T21:35:27.713Z,5.70
2023-04-09T21:37:54.474Z,6.38
2023-04-09T21:40:20.970Z,6.00
2023-04-09T21:42:47.337Z,6.25
2023-04-09T21:45:13.678Z,7.22
2023-04-09T21:47:40.667Z,6.32
2023-04-09T21:50:08.515Z,8.30
2023-04-09T21:52:44.532Z,6.45
2023-04-09T21:55:14.799Z,6.50
2023-04-09T21:57:43.716Z,7.00
2023-04-09T22:00:11.088Z,6.60
2023-04-09T22:02:39.236Z,6.57
2023-04-09T22:05:06.300Z,6.00
2023-04-09T22:07:33.261Z,6.65
2023-04-09T22:09:59.714Z,8.60
2023-04-09T22:12:26.141Z,6.88
2023-04-09T22:14:52.761Z,7.53
2023-04-09T22:17:22.025Z,8.18
2023-04-09T22:19:50.846Z,7.07
2023-04-09T22:22:17.714Z,7.85
2023-04-09T22:24:44.812Z,9.27
2023-04-09T22:27:11.891Z,6.50
2023-04-09T22:29:38.397Z,9.35
2023-04-09T22:32:04.875Z,7.30
2023-04-09T22:34:31.468Z,7.90
2023-04-09T22:36:57.857Z,9.55
2023-04-09T22:39:24.357Z,9.25
2023-04-09T22:41:50.886Z,7.78
2023-04-09T22:44:17.368Z,6.82
2023-04-09T22:46:43.772Z,7.78
2023-04-09T22:49:11.391Z,7.03
2023-04-09T22:51:40.176Z,7.82
2023-04-09T22:54:07.888Z,8.30
2023-04-09T22:56:34.489Z,7.57
2023-04-09T22:59:00.920Z,7.43
2023-04-09T23:01:27.922Z,8.20
2023-04-09T23:03:54.416Z,7.60
2023-04-09T23:06:22.244Z,7.65
2023-04-09T23:08:48.696Z,7.93
2023-04-09T23:11:15.317Z,8.27
2023-04-09T23:13:41.893Z,8.30
2023-04-09T23:16:11.977Z,8.38
2023-04-09T23:18:38.488Z,7.78
2023-04-09T23:21:05.340Z,8.30
2023-04-09T23:23:31.756Z,8.20
2023-04-09T23:26:00.927Z,9.65
2023-04-09T23:28:27.621Z,8.10
2023-04-09T23:30:54.127Z,8.02
2023-04-09T23:33:20.537Z,7.30
2023-04-09T23:35:47.013Z,7.22
2023-04-09T23:38:13.541Z,8.52
2023-04-09T23:40:39.925Z,9.15
2023-04-09T23:43:06.428Z,7.47
2023-04-09T23:45:32.797Z,8.35
2023-04-09T23:47:59.224Z,7.75
2023-04-09T23:50:27.760Z,9.55
2023-04-09T23:52:59.584Z,9.05
2023-04-09T23:55:27.002Z,8.35
2023-04-09T23:57:53.422Z,7.90
